createdAt,value
2023-03-18T00:04:54.776Z,101072.50
2023-03-18T00:09:56.771Z,101074.25
2023-03-18T00:14:58.668Z,101074.13
2023-03-18T00:20:06.164Z,101073.38
2023-03-18T00:25:24.872Z,101069.03
2023-03-18T00:30:52.101Z,101053.59
2023-03-18T00:36:00.222Z,101046.59
2023-03-18T00:41:12.721Z,101049.22
2023-03-18T00:46:18.112Z,101038.94
2023-03-18T00:51:24.317Z,101043.16
2023-03-18T00:56:28.164Z,101037.06
2023-03-18T01:01:33.100Z,101036.94
2023-03-18T01:06:37.682Z,101030.00
2023-03-18T01:11:40.660Z,101013.84
2023-03-18T01:16:43.559Z,101018.19
2023-03-18T01:21:47.485Z,101008.78
2023-03-18T01:26:49.887Z,101010.41
2023-03-18T01:31:58.074Z,101008.66
2023-03-18T01:37:07.283Z,101011.09
2023-03-18T01:42:12.850Z,100996.66
2023-03-18T01:47:18.936Z,100998.34
2023-03-18T01:52:31.483Z,100996.69
2023-03-18T01:57:36.088Z,101002.41
2023-03-18T02:02:40.545Z,101006.66
2023-03-18T02:07:44.487Z,101004.00
2023-03-18T02:12:52.139Z,100999.25
2023-03-18T02:18:10.004Z,100998.09
2023-03-18T02:23:21.778Z,101000.53
2023-03-18T02:28:30.161Z,100991.25
2023-03-18T02:33:44.228Z,100994.69
2023-03-18T02:38:47.853Z,100985.38
2023-03-18T02:43:51.587Z,100986.22
2023-03-18T02:48:54.245Z,100987.09
2023-03-18T02:54:10.398Z,100976.78
2023-03-18T02:59:13.467Z,100969.94
2023-03-18T03:04:17.462Z,100967.38
2023-03-18T03:09:20.369Z,100963.94
2023-03-18T03:14:22.568Z,100968.16
2023-03-18T03:19:24.671Z,100964.66
2023-03-18T03:24:26.802Z,100964.03
2023-03-18T03:29:29.559Z,100964.63
2023-03-18T03:34:31.728Z,100963.81
2023-03-18T03:39:34.169Z,100959.56
2023-03-18T03:44:36.719Z,100962.88
2023-03-18T03:49:39.107Z,100974.69
2023-03-18T03:54:45.374Z,100977.28
2023-03-18T03:59:47.939Z,100980.50
2023-03-18T04:04:50.639Z,100970.22
2023-03-18T04:09:52.730Z,100975.28
2023-03-18T04:14:54.818Z,100968.19
2023-03-18T04:19:56.916Z,100978.53
2023-03-18T04:25:00.592Z,100973.47
2023-03-18T04:30:08.551Z,100988.66
2023-03-18T04:35:11.442Z,100983.56
2023-03-18T04:40:14.967Z,100994.34
2023-03-18T04:45:18.027Z,100991.03
2023-03-18T04:50:20.868Z,100992.81
2023-03-18T04:55:34.190Z,100990.94
2023-03-18T05:00:38.819Z,100990.97
2023-03-18T05:05:49.627Z,100980.72
2023-03-18T05:10:58.570Z,100987.03
2023-03-18T05:16:00.563Z,100987.34
2023-03-18T05:21:05.484Z,100980.72
2023-03-18T05:26:10.087Z,100975.91
2023-03-18T05:31:12.349Z,100978.06
2023-03-18T05:36:14.917Z,100978.88
2023-03-18T05:41:17.990Z,100977.56
2023-03-18T05:46:20.036Z,100970.09
2023-03-18T05:51:22.037Z,100984.94
2023-03-18T05:56:24.954Z,100976.38
2023-03-18T06:01:27.024Z,100975.63
2023-03-18T06:06:30.992Z,100968.94
2023-03-18T06:11:34.217Z,100961.16
2023-03-18T06:16:38.397Z,100962.97
2023-03-18T06:21:49.273Z,100965.84
2023-03-18T06:26:52.080Z,100966.88
2023-03-18T06:31:54.129Z,100960.69
2023-03-18T06:36:57.281Z,100968.47
2023-03-18T06:42:05.196Z,100971.19
2023-03-18T06:47:07.256Z,100970.34
2023-03-18T06:52:14.416Z,100975.41
2023-03-18T06:57:20.679Z,100967.84
2023-03-18T07:02:23.877Z,100973.91
2023-03-18T07:07:28.300Z,100979.06
2023-03-18T07:12:31.644Z,100980.84
2023-03-18T07:17:43.779Z,100983.56
2023-03-18T07:22:47.331Z,100977.59
2023-03-18T07:27:53.527Z,100984.47
2023-03-18T07:32:56.902Z,100987.91
2023-03-18T07:38:01.904Z,100987.03
2023-03-18T07:43:09.610Z,100998.16
2023-03-18T07:48:14.656Z,100988.59
2023-03-18T07:53:23.712Z,100996.22
2023-03-18T07:58:26.867Z,100986.59
2023-03-18T08:03:29.814Z,100981.28
2023-03-18T08:08:34.132Z,100975.13
2023-03-18T08:13:36.669Z,100973.44
2023-03-18T08:18:38.633Z,100957.66
2023-03-18T08:23:44.550Z,100968.03
2023-03-18T08:28:46.811Z,100957.59
2023-03-18T08:33:49.767Z,100958.22
2023-03-18T08:38:52.216Z,100941.22
2023-03-18T08:43:55.673Z,100939.28
2023-03-18T08:48:57.597Z,100945.38
2023-03-18T08:54:00.985Z,100930.75
2023-03-18T08:59:03.206Z,100937.22
2023-03-18T09:04:06.962Z,100918.56
2023-03-18T09:09:15.751Z,100920.72
2023-03-18T09:14:18.739Z,100912.72
2023-03-18T09:19:21.073Z,100916.69
2023-03-18T09:24:23.224Z,100910.81
2023-03-18T09:29:28.807Z,100913.94
2023-03-18T09:34:33.999Z,100907.69
2023-03-18T09:39:36.125Z,100912.88
2023-03-18T09:44:39.266Z,100904.16
2023-03-18T09:50:05.762Z,100898.09
2023-03-18T09:55:30.549Z,100902.28
2023-03-18T10:00:36.676Z,100900.13
2023-03-18T10:05:48.824Z,100910.75
2023-03-18T10:10:53.367Z,100900.34
2023-03-18T10:16:02.164Z,100893.06
2023-03-18T10:21:18.337Z,100876.19
2023-03-18T10:26:25.264Z,100869.50
2023-03-18T10:32:03.643Z,100869.06
2023-03-18T10:37:32.013Z,100869.56
2023-03-18T10:42:38.298Z,100857.72
2023-03-18T10:47:44.808Z,100850.75
2023-03-18T10:52:51.972Z,100847.66
2023-03-18T10:57:55.374Z,100844.41
2023-03-18T11:02:58.875Z,100835.47
2023-03-18T11:08:29.138Z,100836.53
2023-03-18T11:13:31.211Z,100835.53
2023-03-18T11:18:35.025Z,100837.59
2023-03-18T11:23:50.274Z,100816.91
2023-03-18T11:29:05.085Z,100817.81
2023-03-18T11:34:09.147Z,100818.66
2023-03-18T11:39:15.355Z,100800.97
2023-03-18T11:44:20.128Z,100802.66
2023-03-18T11:49:25.572Z,100806.78
2023-03-18T11:54:54.047Z,100799.63
2023-03-18T12:00:10.710Z,100798.38
2023-03-18T12:05:26.772Z,100790.28
2023-03-18T12:10:41.737Z,100815.53
2023-03-18T12:15:55.024Z,100802.81
2023-03-18T12:21:13.893Z,100788.78
2023-03-18T12:26:37.686Z,100787.09
2023-03-18T12:32:00.169Z,100782.56
2023-03-18T12:37:10.522Z,100772.13
2023-03-18T12:42:16.782Z,100765.28
2023-03-18T12:47:37.366Z,100760.34
2023-03-18T12:52:47.539Z,100762.03
2023-03-18T12:57:56.840Z,100758.16
2023-03-18T13:03:07.458Z,100759.53
2023-03-18T13:08:48.653Z,100768.16
2023-03-18T13:13:56.598Z,100748.38
2023-03-18T13:18:59.813Z,100756.13
2023-03-18T13:24:20.199Z,100749.81
2023-03-18T13:29:28.152Z,100743.97
2023-03-18T13:34:55.295Z,100719.75
2023-03-18T13:40:21.001Z,100707.94
2023-03-18T13:45:40.458Z,100708.88
2023-03-18T13:50:46.058Z,100710.13
2023-03-18T13:55:57.965Z,100714.97
2023-03-18T14:01:00.624Z,100707.16
2023-03-18T14:06:05.566Z,100703.00
2023-03-18T14:11:37.634Z,100690.19
2023-03-18T14:16:51.754Z,100702.59
2023-03-18T14:21:55.265Z,100710.78
2023-03-18T14:27:00.199Z,100703.06
2023-03-18T14:32:09.320Z,100707.72
2023-03-18T14:37:28.156Z,100698.38
2023-03-18T14:42:35.973Z,100694.22
2023-03-18T14:47:49.001Z,100687.59
2023-03-18T14:53:24.853Z,100684.28
2023-03-18T14:58:28.405Z,100683.44
2023-03-18T15:03:32.716Z,100677.75
2023-03-18T15:08:48.214Z,100680.47
2023-03-18T15:13:54.840Z,100679.75
2023-03-18T15:18:59.812Z,100684.13
2023-03-18T15:24:06.177Z,100679.88
2023-03-18T15:29:33.522Z,100681.66
2023-03-18T15:34:38.479Z,100682.78
2023-03-18T15:39:41.155Z,100680.00
2023-03-18T15:44:46.303Z,100681.56
2023-03-18T15:49:55.915Z,100681.91
2023-03-18T15:54:59.049Z,100688.88
2023-03-18T16:00:01.474Z,100681.94
2023-03-18T16:05:26.247Z,100683.91
2023-03-18T16:10:32.905Z,100687.38
2023-03-18T16:15:35.855Z,100700.38
2023-03-18T16:20:37.983Z,100697.84
2023-03-18T16:25:39.949Z,100703.22
2023-03-18T16:30:42.042Z,100711.22
2023-03-18T16:35:44.494Z,100707.13
2023-03-18T16:40:46.998Z,100715.81
2023-03-18T16:45:54.317Z,100707.47
2023-03-18T16:50:57.879Z,100713.53
2023-03-18T16:56:16.493Z,100723.25
2023-03-18T17:01:19.729Z,100720.88
2023-03-18T17:06:24.313Z,100716.44
2023-03-18T17:11:27.607Z,100725.16
2023-03-18T17:16:32.793Z,100720.19
2023-03-18T17:21:35.464Z,100732.34
2023-03-18T17:26:38.088Z,100728.94
2023-03-18T17:31:40.480Z,100735.13
2023-03-18T17:36:43.638Z,100738.63
2023-03-18T17:41:46.117Z,100743.22
2023-03-18T17:46:48.520Z,100744.28
2023-03-18T17:52:01.015Z,100732.22
2023-03-18T17:57:06.311Z,100733.03
2023-03-18T18:02:19.119Z,100736.66
2023-03-18T18:07:24.136Z,100731.63
2023-03-18T18:12:26.969Z,100728.38
2023-03-18T18:17:30.420Z,100727.56
2023-03-18T18:22:33.346Z,100718.06
2023-03-18T18:27:36.740Z,100715.63
2023-03-18T18:32:40.090Z,100722.59
2023-03-18T18:37:48.213Z,100722.75
2023-03-18T18:42:51.813Z,100717.72
2023-03-18T18:47:56.845Z,100721.28
2023-03-18T18:53:01.281Z,100728.22
2023-03-18T18:58:07.233Z,100727.53
2023-03-18T19:03:15.495Z,100736.94
2023-03-18T19:08:29.770Z,100734.50
2023-03-18T19:13:37.083Z,100729.41
2023-03-18T19:18:43.810Z,100732.13
2023-03-18T19:23:48.241Z,100729.50
2023-03-18T19:28:59.423Z,100729.44
2023-03-18T19:34:07.092Z,100735.50
2023-03-18T19:39:15.336Z,100738.13
2023-03-18T19:44:27.359Z,100733.06
2023-03-18T19:49:41.388Z,100737.28
2023-03-18T19:54:51.534Z,100737.97
2023-03-18T19:59:58.295Z,100732.88
2023-03-18T20:05:17.273Z,100726.88
2023-03-18T20:10:22.523Z,100725.28
2023-03-18T20:15:30.216Z,100732.91
2023-03-18T20:20:33.968Z,100726.28
2023-03-18T20:25:52.957Z,100728.78
2023-03-18T20:31:00.225Z,100727.09
2023-03-18T20:36:07.043Z,100727.13
2023-03-18T20:41:18.283Z,100726.38
2023-03-18T20:46:25.340Z,100728.06
2023-03-18T20:51:37.415Z,100729.91
2023-03-18T20:56:40.437Z,100733.38
2023-03-18T21:01:43.706Z,100730.78
2023-03-18T21:06:47.196Z,100728.44
2023-03-18T21:11:49.866Z,100725.72
2023-03-18T21:16:53.461Z,100735.34
2023-03-18T21:21:57.240Z,100726.81
2023-03-18T21:27:05.278Z,100726.78
2023-03-18T21:32:22.280Z,100726.97
2023-03-18T21:37:30.857Z,100723.47
2023-03-18T21:42:34.681Z,100726.16
2023-03-18T21:47:37.273Z,100722.72
2023-03-18T21:52:40.732Z,100723.59
2023-03-18T21:57:43.776Z,100718.59
2023-03-18T22:02:48.880Z,100722.03
2023-03-18T22:07:52.177Z,100722.91
2023-03-18T22:12:54.505Z,100721.25
2023-03-18T22:18:02.728Z,100712.75
2023-03-18T22:23:31.896Z,100723.09
2023-03-18T22:28:34.947Z,100725.69
2023-03-18T22:33:37.051Z,100724.00
2023-03-18T22:38:39.046Z,100724.09
2023-03-18T22:43:41.075Z,100736.09
2023-03-18T22:48:45.099Z,100737.84
2023-03-18T22:53:49.532Z,100729.22
2023-03-18T22:58:54.855Z,100727.56
2023-03-18T23:03:58.615Z,100730.09
2023-03-18T23:09:00.587Z,100729.34
2023-03-18T23:14:04.249Z,100730.19
2023-03-18T23:19:21.423Z,100726.78
2023-03-18T23:24:25.477Z,100736.22
2023-03-18T23:29:31.879Z,100737.94
2023-03-18T23:34:33.849Z,100729.41
2023-03-18T23:39:43.013Z,100726.88
2023-03-18T23:44:47.941Z,100737.13
2023-03-18T23:49:49.901Z,100723.47
2023-03-18T23:54:53.869Z,100727.72
2023-03-18T23:59:57.660Z,100724.31
